Terminal Aerodrome Forecast
Issued by NWS

Home | Current Version | Previous Version | Text Only | Print | Product List | Glossary Off
Versions: 1 2 3 4 5 6 7 8 9 10 11 12 13 14 15 16 17 18 19 20

571
FTUS43 KABR 281120
TAFMBG
TAF
KMBG 281120Z 2812/2912 33003KT P6SM BKN130
     FM281700 36006KT P6SM VCSH BKN080
     FM282100 36005KT P6SM VCSH BKN090
     FM290000 34005KT P6SM SCT120=

USA.gov is the U.S. government's official web portal to all federal, state and local government web resources and services.